Etusivu
METAR-TAF:

METAR-TAF

Lentoasemat :

Lyon, Ranska

Leveyspiiri: 45-43N, Pituuspiiri: 004-57E, korkeus merenpinnasta: 200 m

Tämänhetkinen sää

Tämä raportti tehtiin 30 minuuttia sitten, kello 15.00 UTC
Tuuli 11 kn pohjoisesta, vaihdellen luoteen ja koillisen välillä
Lämpötila 21°C
Kosteus 38%
Ilmanpaine 1017 hPa
Näkyvyys 10 km tai enemmän
ei pilviä alle 1500 m:ssä eikä cumulonimbus-pilviä

METAR: LFLY 121500Z AUTO 36011KT 320V040 CAVOK 21/06 Q1017 NOSIG

Aika: 17:30 (15:30 UTC)

Sääennuste

Tämä raportti tehtiin 4 tuntia ja 30 minuuttia sitten, kello 11.00 UTC
Ennuste voimassa 12. päivästä klo 12 UTC - 13. päivään klo 12 UTC
Tuuli 15 kn pohjoisesta
Näkyvyys 10 km tai enemmän
ei pilviä alle 1500 m:ssä eikä cumulonimbus-pilviä
Tulossa
12. päivästä klo 19 UTC - 12. päivään klo 21 UTC
Tuuli 5 kn pohjoisen/luoteesta

TAF: LFLY 121100Z 1212/1312 35015KT CAVOK BECMG 1219/1221 34005KT

Säähavainnot ja -ennusteet yli 4000 lentoasemalta (METAR- ja TAF-raportit).

Käytössä olevat sääasemat on merkitty karttaan keltaisilla ja punaisilla pisteillä.

Aseta hiiri pisteen päälle nähdäksesi sääaseman nimen.

Klikkaa sitten nähdäksesi säähavainnot ja -ennusteet.

Kartan vaihtaminen: klikkaa mustalla rastilla varustettuja vihreitä pisteitä, niin voit zoomata sisään; viivalla varustettua vihreää pistettä, niin voit zoomata ulos tai vihreitä nuolia, niin pääset viereisille kartoille.


METAR-TAF: